sensor_id;sensor_type;location;lat;lon;timestamp;pressure;altitude;pressure_sealevel;temperature;humidity
12624;BME280;6377;42.836;23.998;2023-10-13T00:02:11;96139.75;;;12.36;100.00
12624;BME280;6377;42.836;23.998;2023-10-13T00:04:39;96136.66;;;12.32;100.00
12624;BME280;6377;42.836;23.998;2023-10-13T00:07:10;96134.81;;;12.10;98.45
12624;BME280;6377;42.836;23.998;2023-10-13T00:09:38;96042.97;;;11.41;100.00
12624;BME280;6377;42.836;23.998;2023-10-13T00:12:06;96129.22;;;11.74;100.00
12624;BME280;6377;42.836;23.998;2023-10-13T00:14:35;96134.38;;;11.76;100.00
12624;BME280;6377;42.836;23.998;2023-10-13T00:17:05;96125.38;;;11.85;100.00
12624;BME280;6377;42.836;23.998;2023-10-13T00:19:41;96126.06;;;11.79;100.00
12624;BME280;6377;42.836;23.998;2023-10-13T00:22:14;96123.84;;;11.91;100.00
12624;BME280;6377;42.836;23.998;2023-10-13T00:24:43;96119.59;;;11.82;100.00
12624;BME280;6377;42.836;23.998;2023-10-13T00:27:11;96106.41;;;11.73;100.00
12624;BME280;6377;42.836;23.998;2023-10-13T00:29:55;96114.94;;;11.84;100.00
12624;BME280;6377;42.836;23.998;2023-10-13T00:32:36;96114.28;;;12.04;100.00
12624;BME280;6377;42.836;23.998;2023-10-13T00:35:06;96064.91;;;11.80;100.00
12624;BME280;6377;42.836;23.998;2023-10-13T00:37:38;96120.06;;;12.08;100.00
12624;BME280;6377;42.836;23.998;2023-10-13T00:40:10;96070.91;;;11.83;100.00
12624;BME280;6377;42.836;23.998;2023-10-13T00:42:52;96091.91;;;12.07;100.00
12624;BME280;6377;42.836;23.998;2023-10-13T00:45:21;96116.19;;;12.18;100.00
12624;BME280;6377;42.836;23.998;2023-10-13T00:50:23;96122.66;;;12.16;100.00
12624;BME280;6377;42.836;23.998;2023-10-13T00:52:52;96099.28;;;12.19;100.00
12624;BME280;6377;42.836;23.998;2023-10-13T00:55:19;96122.19;;;12.35;100.00
12624;BME280;6377;42.836;23.998;2023-10-13T00:57:51;96115.03;;;12.21;100.00
12624;BME280;6377;42.836;23.998;2023-10-13T01:00:19;96123.75;;;12.29;100.00
12624;BME280;6377;42.836;23.998;2023-10-13T01:02:53;96118.66;;;12.43;100.00
12624;BME280;6377;42.836;23.998;2023-10-13T01:05:22;96120.31;;;12.44;100.00
12624;BME280;6377;42.836;23.998;2023-10-13T01:07:49;96124.03;;;12.34;98.73
12624;BME280;6377;42.836;23.998;2023-10-13T01:10:20;96115.03;;;12.21;100.00
12624;BME280;6377;42.836;23.998;2023-10-13T01:12:51;96119.72;;;12.33;100.00
12624;BME280;6377;42.836;23.998;2023-10-13T01:15:18;96090.91;;;12.08;100.00
12624;BME280;6377;42.836;23.998;2023-10-13T01:17:47;96124.94;;;12.27;100.00
12624;BME280;6377;42.836;23.998;2023-10-13T01:20:14;96111.69;;;12.19;100.00
12624;BME280;6377;42.836;23.998;2023-10-13T01:22:46;96131.84;;;12.28;97.12
12624;BME280;6377;42.836;23.998;2023-10-13T01:25:23;96134.28;;;12.15;100.00
12624;BME280;6377;42.836;23.998;2023-10-13T01:27:54;96136.59;;;12.18;100.00
12624;BME280;6377;42.836;23.998;2023-10-13T01:30:20;96137.88;;;12.22;98.28
12624;BME280;6377;42.836;23.998;2023-10-13T01:32:52;96116.31;;;12.02;100.00
12624;BME280;6377;42.836;23.998;2023-10-13T01:35:19;96136.03;;;12.00;100.00
12624;BME280;6377;42.836;23.998;2023-10-13T01:37:51;96138.28;;;11.88;100.00
12624;BME280;6377;42.836;23.998;2023-10-13T01:40:18;96128.94;;;11.92;100.00
12624;BME280;6377;42.836;23.998;2023-10-13T01:42:47;96049.41;;;11.47;100.00
12624;BME280;6377;42.836;23.998;2023-10-13T01:45:21;96136.28;;;12.13;100.00
12624;BME280;6377;42.836;23.998;2023-10-13T01:47:47;96125.66;;;12.13;100.00
12624;BME280;6377;42.836;23.998;2023-10-13T01:50:16;96126.38;;;12.07;100.00
12624;BME280;6377;42.836;23.998;2023-10-13T01:52:46;96083.72;;;11.63;100.00
12624;BME280;6377;42.836;23.998;2023-10-13T01:55:14;95987.75;;;10.99;100.00
12624;BME280;6377;42.836;23.998;2023-10-13T01:57:40;96018.19;;;11.03;100.00
12624;BME280;6377;42.836;23.998;2023-10-13T02:00:14;96144.50;;;11.64;100.00
12624;BME280;6377;42.836;23.998;2023-10-13T02:02:44;96103.78;;;11.27;100.00
12624;BME280;6377;42.836;23.998;2023-10-13T02:05:12;96143.13;;;11.68;100.00
12624;BME280;6377;42.836;23.998;2023-10-13T02:07:41;96148.44;;;11.76;100.00
12624;BME280;6377;42.836;23.998;2023-10-13T02:10:11;96139.63;;;11.84;100.00
12624;BME280;6377;42.836;23.998;2023-10-13T02:12:38;96135.09;;;11.93;100.00
12624;BME280;6377;42.836;23.998;2023-10-13T02:15:10;96131.72;;;11.99;100.00
12624;BME280;6377;42.836;23.998;2023-10-13T02:17:40;96137.88;;;11.99;100.00
12624;BME280;6377;42.836;23.998;2023-10-13T02:20:08;96130.97;;;11.90;100.00
12624;BME280;6377;42.836;23.998;2023-10-13T02:22:36;95974.53;;;10.99;100.00
12624;BME280;6377;42.836;23.998;2023-10-13T02:25:06;96121.59;;;12.02;100.00
12624;BME280;6377;42.836;23.998;2023-10-13T02:27:33;96127.25;;;11.99;98.52
12624;BME280;6377;42.836;23.998;2023-10-13T02:30:07;96123.97;;;11.97;100.00
12624;BME280;6377;42.836;23.998;2023-10-13T02:32:40;96124.63;;;11.99;100.00
12624;BME280;6377;42.836;23.998;2023-10-13T02:35:09;96114.28;;;12.04;100.00
12624;BME280;6377;42.836;23.998;2023-10-13T02:37:41;96129.97;;;12.14;100.00
12624;BME280;6377;42.836;23.998;2023-10-13T02:40:13;96125.78;;;12.19;100.00
12624;BME280;6377;42.836;23.998;2023-10-13T02:42:39;96124.25;;;12.25;99.31
12624;BME280;6377;42.836;23.998;2023-10-13T02:45:09;96117.34;;;12.16;99.75
12624;BME280;6377;42.836;23.998;2023-10-13T02:47:37;96121.66;;;12.17;97.02
12624;BME280;6377;42.836;23.998;2023-10-13T02:50:07;96124.84;;;12.12;99.71
12624;BME280;6377;42.836;23.998;2023-10-13T02:52:38;96099.28;;;11.97;99.45
12624;BME280;6377;42.836;23.998;2023-10-13T02:55:07;96128.56;;;12.26;99.75
12624;BME280;6377;42.836;23.998;2023-10-13T02:57:35;96135.00;;;12.31;99.63
12624;BME280;6377;42.836;23.998;2023-10-13T03:00:06;95989.03;;;11.34;96.21
12624;BME280;6377;42.836;23.998;2023-10-13T03:02:38;96110.22;;;11.71;95.59
12624;BME280;6377;42.836;23.998;2023-10-13T03:05:13;96170.59;;;11.84;96.14
12624;BME280;6377;42.836;23.998;2023-10-13T03:07:39;96148.03;;;11.88;100.00
12624;BME280;6377;42.836;23.998;2023-10-13T03:10:09;96142.88;;;11.94;100.00
12624;BME280;6377;42.836;23.998;2023-10-13T03:12:36;96145.94;;;12.06;100.00
12624;BME280;6377;42.836;23.998;2023-10-13T03:15:04;96150.22;;;12.07;99.09
12624;BME280;6377;42.836;23.998;2023-10-13T03:17:38;96151.53;;;11.88;95.54
12624;BME280;6377;42.836;23.998;2023-10-13T03:20:09;96146.66;;;11.61;100.00
12624;BME280;6377;42.836;23.998;2023-10-13T03:22:39;96168.59;;;11.47;99.37
12624;BME280;6377;42.836;23.998;2023-10-13T03:25:10;96155.41;;;11.22;100.00
12624;BME280;6377;42.836;23.998;2023-10-13T03:27:43;96123.19;;;11.11;100.00
12624;BME280;6377;42.836;23.998;2023-10-13T03:30:27;96146.25;;;11.41;100.00
12624;BME280;6377;42.836;23.998;2023-10-13T03:33:02;96149.41;;;11.45;100.00
12624;BME280;6377;42.836;23.998;2023-10-13T03:35:34;96034.47;;;10.84;100.00
12624;BME280;6377;42.836;23.998;2023-10-13T03:38:10;96122.09;;;11.44;100.00
12624;BME280;6377;42.836;23.998;2023-10-13T03:40:44;96150.97;;;11.62;100.00
12624;BME280;6377;42.836;23.998;2023-10-13T03:43:33;96054.94;;;10.90;99.76
12624;BME280;6377;42.836;23.998;2023-10-13T03:46:10;96146.22;;;11.49;100.00
12624;BME280;6377;42.836;23.998;2023-10-13T03:48:38;96136.91;;;11.61;100.00
12624;BME280;6377;42.836;23.998;2023-10-13T03:51:17;96137.72;;;11.62;100.00
12624;BME280;6377;42.836;23.998;2023-10-13T03:53:46;96131.06;;;11.74;100.00
12624;BME280;6377;42.836;23.998;2023-10-13T03:56:20;96128.38;;;11.82;100.00
12624;BME280;6377;42.836;23.998;2023-10-13T03:58:54;96124.53;;;11.85;99.53
12624;BME280;6377;42.836;23.998;2023-10-13T04:01:32;96090.88;;;11.54;99.74
12624;BME280;6377;42.836;23.998;2023-10-13T04:04:10;96155.22;;;11.79;100.00
12624;BME280;6377;42.836;23.998;2023-10-13T04:06:37;96126.91;;;11.71;100.00
12624;BME280;6377;42.836;23.998;2023-10-13T04:09:26;96128.06;;;11.69;100.00
12624;BME280;6377;42.836;23.998;2023-10-13T04:12:10;96123.28;;;11.72;100.00
12624;BME280;6377;42.836;23.998;2023-10-13T04:15:09;96124.00;;;11.58;97.24
12624;BME280;6377;42.836;23.998;2023-10-13T04:17:47;96118.31;;;11.69;100.00
12624;BME280;6377;42.836;23.998;2023-10-13T04:20:16;96111.16;;;11.78;100.00
12624;BME280;6377;42.836;23.998;2023-10-13T04:23:03;96148.31;;;11.70;97.52
12624;BME280;6377;42.836;23.998;2023-10-13T04:25:44;96122.44;;;11.72;100.00
12624;BME280;6377;42.836;23.998;2023-10-13T04:28:28;96121.06;;;11.84;98.66
12624;BME280;6377;42.836;23.998;2023-10-13T04:31:03;96125.19;;;11.87;96.59
12624;BME280;6377;42.836;23.998;2023-10-13T04:33:47;96126.00;;;11.87;97.08
12624;BME280;6377;42.836;23.998;2023-10-13T04:36:21;96132.41;;;11.70;99.29
12624;BME280;6377;42.836;23.998;2023-10-13T04:39:02;96120.56;;;11.50;100.00
12624;BME280;6377;42.836;23.998;2023-10-13T04:41:38;96099.91;;;11.37;99.43
12624;BME280;6377;42.836;23.998;2023-10-13T04:44:05;96151.19;;;11.52;99.95
12624;BME280;6377;42.836;23.998;2023-10-13T04:46:46;96139.06;;;11.58;100.00
12624;BME280;6377;42.836;23.998;2023-10-13T04:49:37;96140.38;;;11.62;100.00
12624;BME280;6377;42.836;23.998;2023-10-13T04:52:15;96145.78;;;11.68;100.00
12624;BME280;6377;42.836;23.998;2023-10-13T04:55:06;96152.16;;;11.51;99.25
12624;BME280;6377;42.836;23.998;2023-10-13T04:58:10;96166.78;;;11.47;100.00
12624;BME280;6377;42.836;23.998;2023-10-13T05:00:40;96008.16;;;10.36;100.00
12624;BME280;6377;42.836;23.998;2023-10-13T05:03:35;96083.97;;;10.51;100.00
12624;BME280;6377;42.836;23.998;2023-10-13T05:06:19;96171.16;;;11.16;100.00
12624;BME280;6377;42.836;23.998;2023-10-13T05:09:03;96167.78;;;11.38;100.00
12624;BME280;6377;42.836;23.998;2023-10-13T05:11:47;96176.53;;;11.47;99.02
12624;BME280;6377;42.836;23.998;2023-10-13T05:14:38;96175.09;;;11.28;99.24
12624;BME280;6377;42.836;23.998;2023-10-13T05:17:23;96177.47;;;11.15;100.00
12624;BME280;6377;42.836;23.998;2023-10-13T05:20:08;96174.50;;;11.02;100.00
12624;BME280;6377;42.836;23.998;2023-10-13T05:22:52;96180.25;;;11.21;100.00
12624;BME280;6377;42.836;23.998;2023-10-13T05:25:37;96179.69;;;11.42;100.00
12624;BME280;6377;42.836;23.998;2023-10-13T05:28:22;96187.38;;;11.68;100.00
12624;BME280;6377;42.836;23.998;2023-10-13T05:31:08;96197.75;;;11.86;100.00
12624;BME280;6377;42.836;23.998;2023-10-13T05:33:52;96198.25;;;11.81;100.00
12624;BME280;6377;42.836;23.998;2023-10-13T05:36:37;96200.53;;;11.92;100.00
12624;BME280;6377;42.836;23.998;2023-10-13T05:39:22;96186.50;;;11.84;99.74
12624;BME280;6377;42.836;23.998;2023-10-13T05:42:07;96204.13;;;11.99;99.74
12624;BME280;6377;42.836;23.998;2023-10-13T05:44:48;96206.94;;;12.06;99.48
12624;BME280;6377;42.836;23.998;2023-10-13T05:47:24;96208.47;;;12.00;100.00
12624;BME280;6377;42.836;23.998;2023-10-13T05:50:13;96179.31;;;11.92;99.82
12624;BME280;6377;42.836;23.998;2023-10-13T05:52:55;96206.53;;;12.17;99.04
12624;BME280;6377;42.836;23.998;2023-10-13T05:55:47;96211.47;;;12.20;98.78
12624;BME280;6377;42.836;23.998;2023-10-13T05:58:40;96216.72;;;12.28;98.75
12624;BME280;6377;42.836;23.998;2023-10-13T06:01:24;96194.03;;;12.25;97.42
12624;BME280;6377;42.836;23.998;2023-10-13T06:04:10;96207.25;;;12.33;96.86
12624;BME280;6377;42.836;23.998;2023-10-13T06:06:55;96210.50;;;12.44;95.96
12624;BME280;6377;42.836;23.998;2023-10-13T06:09:39;96216.09;;;12.49;96.07
12624;BME280;6377;42.836;23.998;2023-10-13T06:12:24;96218.31;;;12.60;97.71
12624;BME280;6377;42.836;23.998;2023-10-13T06:15:08;96223.13;;;12.64;97.83
12624;BME280;6377;42.836;23.998;2023-10-13T06:17:52;96227.41;;;12.65;97.66
12624;BME280;6377;42.836;23.998;2023-10-13T06:20:40;96226.25;;;12.68;97.47
12624;BME280;6377;42.836;23.998;2023-10-13T06:23:24;96224.88;;;12.72;97.81
12624;BME280;6377;42.836;23.998;2023-10-13T06:26:09;96230.09;;;12.80;98.20
12624;BME280;6377;42.836;23.998;2023-10-13T06:28:53;96221.28;;;12.87;97.04
12624;BME280;6377;42.836;23.998;2023-10-13T06:31:21;96228.53;;;12.93;96.47
12624;BME280;6377;42.836;23.998;2023-10-13T06:33:48;96231.38;;;13.07;95.43
12624;BME280;6377;42.836;23.998;2023-10-13T06:36:17;96068.91;;;12.22;92.97
12624;BME280;6377;42.836;23.998;2023-10-13T06:38:44;96231.19;;;13.31;94.70
12624;BME280;6377;42.836;23.998;2023-10-13T06:41:20;96236.88;;;13.42;94.53
12624;BME280;6377;42.836;23.998;2023-10-13T06:43:56;96238.34;;;13.45;96.06
12624;BME280;6377;42.836;23.998;2023-10-13T06:46:27;96237.72;;;13.58;94.66
12624;BME280;6377;42.836;23.998;2023-10-13T06:48:55;96232.88;;;13.61;93.93
12624;BME280;6377;42.836;23.998;2023-10-13T06:51:26;96232.41;;;13.72;93.48
12624;BME280;6377;42.836;23.998;2023-10-13T06:53:56;96231.38;;;13.88;95.77
12624;BME280;6377;42.836;23.998;2023-10-13T06:56:24;96230.72;;;14.00;93.48
12624;BME280;6377;42.836;23.998;2023-10-13T06:58:54;96226.31;;;14.08;94.55
12624;BME280;6377;42.836;23.998;2023-10-13T07:01:26;96219.88;;;14.17;91.62
12624;BME280;6377;42.836;23.998;2023-10-13T07:03:53;96092.38;;;13.43;94.27
12624;BME280;6377;42.836;23.998;2023-10-13T07:06:21;96126.22;;;13.85;95.24
12624;BME280;6377;42.836;23.998;2023-10-13T07:08:50;96207.84;;;14.56;92.16
12624;BME280;6377;42.836;23.998;2023-10-13T07:11:19;96207.34;;;14.68;90.68
12624;BME280;6377;42.836;23.998;2023-10-13T07:13:59;96205.78;;;14.80;92.28
12624;BME280;6377;42.836;23.998;2023-10-13T07:16:36;96183.94;;;14.84;87.07
12624;BME280;6377;42.836;23.998;2023-10-13T07:19:04;96208.22;;;15.24;84.63
12624;BME280;6377;42.836;23.998;2023-10-13T07:21:33;96189.44;;;15.32;83.56
12624;BME280;6377;42.836;23.998;2023-10-13T07:24:01;96079.13;;;14.64;85.59
12624;BME280;6377;42.836;23.998;2023-10-13T07:26:37;96193.72;;;15.60;82.20
12624;BME280;6377;42.836;23.998;2023-10-13T07:29:09;96197.94;;;15.76;81.95
12624;BME280;6377;42.836;23.998;2023-10-13T07:31:36;96194.69;;;15.87;84.05
12624;BME280;6377;42.836;23.998;2023-10-13T07:34:06;96184.47;;;15.91;82.31
12624;BME280;6377;42.836;23.998;2023-10-13T07:36:39;96193.19;;;16.32;78.95
12624;BME280;6377;42.836;23.998;2023-10-13T07:39:10;96185.84;;;16.47;78.63
12624;BME280;6377;42.836;23.998;2023-10-13T07:41:48;96178.31;;;16.70;76.67
12624;BME280;6377;42.836;23.998;2023-10-13T07:44:21;96182.66;;;16.85;73.48
12624;BME280;6377;42.836;23.998;2023-10-13T07:46:52;96182.06;;;17.02;75.48
12624;BME280;6377;42.836;23.998;2023-10-13T07:49:29;96179.97;;;17.24;73.45
12624;BME280;6377;42.836;23.998;2023-10-13T07:52:04;96169.47;;;17.35;72.69
12624;BME280;6377;42.836;23.998;2023-10-13T07:54:51;96178.09;;;17.64;70.34
12624;BME280;6377;42.836;23.998;2023-10-13T07:57:25;96148.63;;;17.70;70.03
12624;BME280;6377;42.836;23.998;2023-10-13T07:59:55;96180.78;;;18.15;70.58
12624;BME280;6377;42.836;23.998;2023-10-13T08:02:34;96176.16;;;18.35;67.92
12624;BME280;6377;42.836;23.998;2023-10-13T08:05:15;96146.69;;;18.35;65.55
12624;BME280;6377;42.836;23.998;2023-10-13T08:07:51;96179.03;;;18.78;63.20
12624;BME280;6377;42.836;23.998;2023-10-13T08:10:20;96164.88;;;18.95;60.74
12624;BME280;6377;42.836;23.998;2023-10-13T08:12:55;96136.03;;;18.91;58.98
12624;BME280;6377;42.836;23.998;2023-10-13T08:15:24;96173.38;;;19.35;58.03
12624;BME280;6377;42.836;23.998;2023-10-13T08:17:59;96175.31;;;19.53;56.77
12624;BME280;6377;42.836;23.998;2023-10-13T08:20:30;96173.41;;;19.60;56.36
12624;BME280;6377;42.836;23.998;2023-10-13T08:23:04;96165.50;;;19.65;55.00
12624;BME280;6377;42.836;23.998;2023-10-13T08:25:41;96168.78;;;19.85;55.06
12624;BME280;6377;42.836;23.998;2023-10-13T08:28:25;96176.00;;;20.21;56.04
12624;BME280;6377;42.836;23.998;2023-10-13T08:31:10;96163.84;;;20.37;53.19
12624;BME280;6377;42.836;23.998;2023-10-13T08:33:48;96166.41;;;20.73;51.90
12624;BME280;6377;42.836;23.998;2023-10-13T08:36:14;96150.97;;;20.68;50.58
12624;BME280;6377;42.836;23.998;2023-10-13T08:38:56;96097.41;;;20.55;52.80
12624;BME280;6377;42.836;23.998;2023-10-13T08:41:40;96130.72;;;20.96;52.87
12624;BME280;6377;42.836;23.998;2023-10-13T08:44:21;96165.75;;;21.31;51.82
12624;BME280;6377;42.836;23.998;2023-10-13T08:47:00;96169.25;;;21.66;51.41
12624;BME280;6377;42.836;23.998;2023-10-13T08:49:32;96177.91;;;21.91;49.98
12624;BME280;6377;42.836;23.998;2023-10-13T08:52:07;96171.28;;;22.22;49.22
12624;BME280;6377;42.836;23.998;2023-10-13T08:54:59;96169.47;;;22.39;47.37
12624;BME280;6377;42.836;23.998;2023-10-13T08:57:40;96168.78;;;22.72;45.83
12624;BME280;6377;42.836;23.998;2023-10-13T09:00:15;96158.78;;;23.17;43.31
12624;BME280;6377;42.836;23.998;2023-10-13T09:03:14;96164.00;;;23.24;40.70
12624;BME280;6377;42.836;23.998;2023-10-13T09:05:55;96146.34;;;23.00;40.52
12624;BME280;6377;42.836;23.998;2023-10-13T09:08:32;96126.81;;;23.09;40.93
12624;BME280;6377;42.836;23.998;2023-10-13T09:11:10;96160.16;;;23.70;41.52
12624;BME280;6377;42.836;23.998;2023-10-13T09:13:39;96168.22;;;23.86;40.91
12624;BME280;6377;42.836;23.998;2023-10-13T09:16:13;96163.50;;;24.15;39.13
12624;BME280;6377;42.836;23.998;2023-10-13T09:18:47;96158.84;;;24.54;39.05
12624;BME280;6377;42.836;23.998;2023-10-13T09:21:18;96160.63;;;24.48;38.10
12624;BME280;6377;42.836;23.998;2023-10-13T09:24:03;96161.97;;;24.46;39.44
12624;BME280;6377;42.836;23.998;2023-10-13T09:26:53;96149.25;;;24.46;37.99
12624;BME280;6377;42.836;23.998;2023-10-13T09:29:23;96141.97;;;24.47;37.56
12624;BME280;6377;42.836;23.998;2023-10-13T09:32:00;96142.75;;;24.69;37.27
12624;BME280;6377;42.836;23.998;2023-10-13T09:34:29;96135.66;;;24.90;36.99
12624;BME280;6377;42.836;23.998;2023-10-13T09:36:59;96142.16;;;25.16;35.83
12624;BME280;6377;42.836;23.998;2023-10-13T09:39:28;96133.75;;;25.17;36.54
12624;BME280;6377;42.836;23.998;2023-10-13T09:42:07;96109.50;;;25.32;36.66
12624;BME280;6377;42.836;23.998;2023-10-13T09:44:37;96138.16;;;25.60;35.83
12624;BME280;6377;42.836;23.998;2023-10-13T09:47:10;96133.63;;;25.71;35.05
12624;BME280;6377;42.836;23.998;2023-10-13T09:49:44;96131.75;;;25.71;34.85
12624;BME280;6377;42.836;23.998;2023-10-13T09:52:13;96012.50;;;24.82;35.92
12624;BME280;6377;42.836;23.998;2023-10-13T09:54:55;96132.47;;;25.61;36.06
12624;BME280;6377;42.836;23.998;2023-10-13T09:57:31;96138.16;;;25.60;35.47
12624;BME280;6377;42.836;23.998;2023-10-13T10:00:09;96128.78;;;25.41;35.35
12624;BME280;6377;42.836;23.998;2023-10-13T10:02:54;96105.81;;;25.12;35.85
12624;BME280;6377;42.836;23.998;2023-10-13T10:05:29;96127.38;;;25.33;35.88
12624;BME280;6377;42.836;23.998;2023-10-13T10:08:00;96125.00;;;25.42;35.08
12624;BME280;6377;42.836;23.998;2023-10-13T10:10:45;96124.97;;;25.74;34.69
12624;BME280;6377;42.836;23.998;2023-10-13T10:13:21;96100.69;;;25.94;34.69
12624;BME280;6377;42.836;23.998;2023-10-13T10:15:59;96122.28;;;26.31;34.74
12624;BME280;6377;42.836;23.998;2023-10-13T10:18:30;96074.94;;;25.96;34.46
12624;BME280;6377;42.836;23.998;2023-10-13T10:21:04;96119.31;;;26.37;33.65
12624;BME280;6377;42.836;23.998;2023-10-13T10:23:35;96102.84;;;26.69;33.10
12624;BME280;6377;42.836;23.998;2023-10-13T10:26:11;96050.97;;;26.45;33.38
12624;BME280;6377;42.836;23.998;2023-10-13T10:28:41;96096.06;;;26.61;33.28
12624;BME280;6377;42.836;23.998;2023-10-13T10:31:11;96094.50;;;27.06;33.46
12624;BME280;6377;42.836;23.998;2023-10-13T10:33:41;96098.03;;;27.26;32.57
12624;BME280;6377;42.836;23.998;2023-10-13T10:36:08;96097.72;;;27.58;31.96
12624;BME280;6377;42.836;23.998;2023-10-13T10:38:52;96088.16;;;27.81;31.64
12624;BME280;6377;42.836;23.998;2023-10-13T10:41:25;96097.09;;;27.87;31.90
12624;BME280;6377;42.836;23.998;2023-10-13T10:43:55;96098.28;;;27.55;31.72
12624;BME280;6377;42.836;23.998;2023-10-13T10:46:29;96104.78;;;27.54;32.40
12624;BME280;6377;42.836;23.998;2023-10-13T10:49:04;95947.63;;;26.47;31.44
12624;BME280;6377;42.836;23.998;2023-10-13T10:51:36;96090.38;;;27.54;32.04
12624;BME280;6377;42.836;23.998;2023-10-13T10:54:18;96091.13;;;27.85;31.34
12624;BME280;6377;42.836;23.998;2023-10-13T10:56:46;96099.50;;;28.13;30.47
12624;BME280;6377;42.836;23.998;2023-10-13T10:59:19;96003.94;;;27.71;31.21
12624;BME280;6377;42.836;23.998;2023-10-13T11:01:52;96113.63;;;28.20;30.69
12624;BME280;6377;42.836;23.998;2023-10-13T11:04:19;96003.47;;;27.49;30.66
12624;BME280;6377;42.836;23.998;2023-10-13T11:06:59;95966.09;;;27.00;30.70
12624;BME280;6377;42.836;23.998;2023-10-13T11:09:27;95962.28;;;26.81;31.41
12624;BME280;6377;42.836;23.998;2023-10-13T11:12:10;96030.56;;;27.69;31.17
12624;BME280;6377;42.836;23.998;2023-10-13T11:15:00;95992.81;;;27.62;30.32
12624;BME280;6377;42.836;23.998;2023-10-13T11:17:29;96040.88;;;28.36;30.77
12624;BME280;6377;42.836;23.998;2023-10-13T11:20:11;95985.50;;;28.17;29.93
12624;BME280;6377;42.836;23.998;2023-10-13T11:22:52;96040.66;;;28.27;29.79
12624;BME280;6377;42.836;23.998;2023-10-13T11:25:21;96036.59;;;28.25;30.53
12624;BME280;6377;42.836;23.998;2023-10-13T11:27:55;96022.22;;;28.19;30.71
12624;BME280;6377;42.836;23.998;2023-10-13T11:30:25;95981.59;;;27.84;30.17
12624;BME280;6377;42.836;23.998;2023-10-13T11:33:01;96045.91;;;28.68;30.21
12624;BME280;6377;42.836;23.998;2023-10-13T11:35:31;96056.34;;;29.18;29.72
12624;BME280;6377;42.836;23.998;2023-10-13T11:38:12;96044.50;;;29.04;29.58
12624;BME280;6377;42.836;23.998;2023-10-13T11:40:41;96044.56;;;28.99;30.19
12624;BME280;6377;42.836;23.998;2023-10-13T11:43:32;95947.91;;;28.29;29.99
12624;BME280;6377;42.836;23.998;2023-10-13T11:46:10;96037.72;;;28.68;29.79
12624;BME280;6377;42.836;23.998;2023-10-13T11:48:43;96071.91;;;28.84;30.28
12624;BME280;6377;42.836;23.998;2023-10-13T11:51:13;96062.50;;;28.66;30.00
12624;BME280;6377;42.836;23.998;2023-10-13T11:53:44;96008.34;;;28.65;30.07
12624;BME280;6377;42.836;23.998;2023-10-13T11:56:13;96053.88;;;29.22;29.62
12624;BME280;6377;42.836;23.998;2023-10-13T11:58:43;96058.66;;;29.64;29.21
12624;BME280;6377;42.836;23.998;2023-10-13T12:01:11;96056.13;;;29.72;28.57
12624;BME280;6377;42.836;23.998;2023-10-13T12:03:49;96053.63;;;29.18;28.91
12624;BME280;6377;42.836;23.998;2023-10-13T12:06:34;96031.63;;;29.15;29.35
12624;BME280;6377;42.836;23.998;2023-10-13T12:09:12;96047.06;;;29.24;29.24
12624;BME280;6377;42.836;23.998;2023-10-13T12:12:01;95967.91;;;28.09;29.63
12624;BME280;6377;42.836;23.998;2023-10-13T12:14:30;96047.56;;;28.54;29.72
12624;BME280;6377;42.836;23.998;2023-10-13T12:17:03;96039.44;;;28.49;30.19
12624;BME280;6377;42.836;23.998;2023-10-13T12:19:37;96040.56;;;28.43;29.79
12624;BME280;6377;42.836;23.998;2023-10-13T12:22:06;96007.78;;;28.19;30.17
12624;BME280;6377;42.836;23.998;2023-10-13T12:24:42;96030.13;;;28.21;30.27
12624;BME280;6377;42.836;23.998;2023-10-13T12:27:19;96036.41;;;28.01;30.16
12624;BME280;6377;42.836;23.998;2023-10-13T12:29:46;96034.81;;;27.95;30.67
12624;BME280;6377;42.836;23.998;2023-10-13T12:32:13;96033.06;;;28.24;29.72
12624;BME280;6377;42.836;23.998;2023-10-13T12:34:48;96043.19;;;28.58;29.73
12624;BME280;6377;42.836;23.998;2023-10-13T12:37:27;95906.63;;;28.17;29.08
12624;BME280;6377;42.836;23.998;2023-10-13T12:40:16;95884.00;;;28.26;28.73
12624;BME280;6377;42.836;23.998;2023-10-13T12:43:01;95888.16;;;28.48;28.77
12624;BME280;6377;42.836;23.998;2023-10-13T12:45:47;95877.72;;;27.87;28.60
12624;BME280;6377;42.836;23.998;2023-10-13T12:48:33;96014.97;;;28.49;29.35
12624;BME280;6377;42.836;23.998;2023-10-13T12:51:19;95946.41;;;28.03;29.80
12624;BME280;6377;42.836;23.998;2023-10-13T12:53:47;96022.81;;;28.11;30.04
12624;BME280;6377;42.836;23.998;2023-10-13T12:56:14;96035.88;;;28.09;30.19
12624;BME280;6377;42.836;23.998;2023-10-13T12:58:42;95891.66;;;27.11;30.52
12624;BME280;6377;42.836;23.998;2023-10-13T13:01:17;96036.78;;;27.79;30.68
12624;BME280;6377;42.836;23.998;2023-10-13T13:03:46;95980.44;;;27.11;31.20
12624;BME280;6377;42.836;23.998;2023-10-13T13:06:19;96037.97;;;27.33;31.49
12624;BME280;6377;42.836;23.998;2023-10-13T13:08:50;95926.72;;;26.42;31.96
12624;BME280;6377;42.836;23.998;2023-10-13T13:11:17;95926.72;;;26.22;31.22
12624;BME280;6377;42.836;23.998;2023-10-13T13:13:45;96032.88;;;26.81;31.95
12624;BME280;6377;42.836;23.998;2023-10-13T13:16:12;95994.00;;;26.35;31.85
12624;BME280;6377;42.836;23.998;2023-10-13T13:18:40;95978.19;;;26.07;31.79
12624;BME280;6377;42.836;23.998;2023-10-13T13:21:08;95965.16;;;26.04;32.26
12624;BME280;6377;42.836;23.998;2023-10-13T13:23:39;96038.47;;;26.29;31.76
12624;BME280;6377;42.836;23.998;2023-10-13T13:26:06;95970.25;;;25.70;32.55
12624;BME280;6377;42.836;23.998;2023-10-13T13:28:41;96020.13;;;25.79;31.93
12624;BME280;6377;42.836;23.998;2023-10-13T13:31:08;96006.13;;;25.45;32.17
12624;BME280;6377;42.836;23.998;2023-10-13T13:33:38;95994.94;;;25.27;32.49
12624;BME280;6377;42.836;23.998;2023-10-13T13:36:08;95934.75;;;24.73;32.03
12624;BME280;6377;42.836;23.998;2023-10-13T13:38:41;95962.78;;;24.93;32.32
12624;BME280;6377;42.836;23.998;2023-10-13T13:41:12;96033.72;;;25.37;32.88